Time;durP1;ratioP1;P1;durP2;ratioP2;P2;SDS_P1;SDS_P2;PMS_P1;PMS_P2;Temp;Humidity;BMP_temperature;BMP_pressure;BME280_temperature;BME280_humidity;BME280_pressure;Samples;Min_cycle;Max_cycle;Signal;HPM_P1;HPM_P2
2023/09/01 00:02:20;;;;;;;8.50;5.57;;;;;;;;;;5073779;28;20566;-47
2023/09/01 00:05:02;;;;;;;8.65;5.97;;;;;;;;;;5073662;28;20203;-44
2023/09/01 00:07:29;;;;;;;7.88;5.68;;;;;;;;;;5074051;28;20207;-44
2023/09/01 00:09:57;;;;;;;9.02;5.78;;;;;;;;;;5073298;28;20210;-48
2023/09/01 00:12:24;;;;;;;12.55;6.40;;;;;;;;;;5073395;28;20207;-46
2023/09/01 00:14:52;;;;;;;8.90;6.10;;;;;;;;;;5073667;28;20532;-46
2023/09/01 00:17:19;;;;;;;9.75;6.53;;;;;;;;;;5073408;28;20570;-44
2023/09/01 00:19:47;;;;;;;7.72;6.15;;;;;;;;;;5073583;28;20261;-47
2023/09/01 00:22:14;;;;;;;13.43;6.28;;;;;;;;;;5073373;28;20265;-44
2023/09/01 00:24:41;;;;;;;9.85;6.95;;;;;;;;;;5073583;28;20231;-45
2023/09/01 00:27:08;;;;;;;9.88;6.47;;;;;;;;;;5073330;28;20739;-44
2023/09/01 00:29:35;;;;;;;10.40;6.50;;;;;;;;;;5072368;28;20207;-44
2023/09/01 00:32:02;;;;;;;10.00;6.68;;;;;;;;;;5072011;28;20562;-45
2023/09/01 00:34:30;;;;;;;10.35;7.00;;;;;;;;;;5072147;28;20195;-46
2023/09/01 00:36:57;;;;;;;10.90;6.70;;;;;;;;;;5073151;28;20199;-45
2023/09/01 00:39:25;;;;;;;9.55;7.38;;;;;;;;;;5072170;28;20203;-44
2023/09/01 00:41:52;;;;;;;11.32;7.38;;;;;;;;;;5073116;28;20230;-46
2023/09/01 00:44:20;;;;;;;11.88;7.72;;;;;;;;;;5073313;28;20191;-44
2023/09/01 00:46:47;;;;;;;11.10;8.02;;;;;;;;;;5073445;28;20195;-44
2023/09/01 00:49:17;;;;;;;12.18;7.63;;;;;;;;;;5073072;28;20211;-45
2023/09/01 00:51:48;;;;;;;11.38;6.97;;;;;;;;;;5075924;28;20211;-45
2023/09/01 00:54:16;;;;;;;12.48;7.22;;;;;;;;;;5076085;28;20207;-44
2023/09/01 00:56:43;;;;;;;10.07;7.47;;;;;;;;;;5076039;28;20210;-45
2023/09/01 00:59:11;;;;;;;15.35;8.00;;;;;;;;;;5075845;28;20204;-44
2023/09/01 01:01:38;;;;;;;11.75;8.27;;;;;;;;;;5076955;28;20234;-44
2023/09/01 01:04:07;;;;;;;10.23;7.10;;;;;;;;;;5076719;28;20203;-44
2023/09/01 01:07:12;;;;;;;12.82;8.20;;;;;;;;;;5075894;28;20206;-45
2023/09/01 01:09:50;;;;;;;10.48;7.28;;;;;;;;;;5076983;28;20203;-45
2023/09/01 01:12:26;;;;;;;9.90;7.32;;;;;;;;;;5076776;28;20208;-44
2023/09/01 01:14:54;;;;;;;10.20;7.55;;;;;;;;;;5076617;28;20703;-48
2023/09/01 01:17:21;;;;;;;13.80;7.90;;;;;;;;;;5075176;28;20679;-44
2023/09/01 01:19:50;;;;;;;12.10;7.63;;;;;;;;;;5058911;28;20203;-44
2023/09/01 01:22:33;;;;;;;10.75;6.88;;;;;;;;;;5058866;28;20306;-47
2023/09/01 01:25:08;;;;;;;9.35;6.88;;;;;;;;;;5075268;28;20230;-46
2023/09/01 01:27:36;;;;;;;11.20;7.07;;;;;;;;;;5075499;28;20257;-45
2023/09/01 01:30:07;;;;;;;9.07;6.40;;;;;;;;;;5076357;28;20249;-45
2023/09/01 01:32:35;;;;;;;9.45;6.72;;;;;;;;;;5076753;28;20290;-46
2023/09/01 01:35:24;;;;;;;9.23;6.57;;;;;;;;;;5075180;28;20204;-45
2023/09/01 01:37:57;;;;;;;9.10;6.88;;;;;;;;;;5059044;28;20290;-45
2023/09/01 01:40:28;;;;;;;8.68;6.45;;;;;;;;;;5076013;28;20199;-47
2023/09/01 01:42:55;;;;;;;7.88;5.82;;;;;;;;;;5075288;28;20199;-46
2023/09/01 01:45:24;;;;;;;8.93;6.50;;;;;;;;;;5074943;28;20207;-44
2023/09/01 01:47:51;;;;;;;7.68;6.18;;;;;;;;;;5075906;28;20200;-45
2023/09/01 01:50:18;;;;;;;9.27;6.93;;;;;;;;;;5076227;28;20599;-44
2023/09/01 01:52:45;;;;;;;8.63;6.57;;;;;;;;;;5076287;28;20203;-46
2023/09/01 01:55:13;;;;;;;12.68;6.13;;;;;;;;;;5075070;28;20199;-45
2023/09/01 01:57:41;;;;;;;8.77;6.43;;;;;;;;;;5074789;28;20719;-46
2023/09/01 02:00:14;;;;;;;9.93;6.65;;;;;;;;;;5074623;28;20204;-46
2023/09/01 02:02:42;;;;;;;8.73;6.32;;;;;;;;;;5075108;28;20219;-45
2023/09/01 02:05:10;;;;;;;10.30;6.63;;;;;;;;;;5075861;28;20242;-46
2023/09/01 02:07:37;;;;;;;8.10;6.18;;;;;;;;;;5075965;28;20280;-44
2023/09/01 02:10:05;;;;;;;10.10;6.68;;;;;;;;;;5074534;28;20203;-46
2023/09/01 02:12:33;;;;;;;8.07;6.20;;;;;;;;;;5075570;28;20212;-46
2023/09/01 02:15:01;;;;;;;8.95;5.63;;;;;;;;;;5075496;28;20191;-45
2023/09/01 02:17:28;;;;;;;12.20;6.60;;;;;;;;;;5074260;28;20672;-45
2023/09/01 02:19:56;;;;;;;9.43;6.22;;;;;;;;;;5075384;28;20713;-45
2023/09/01 02:22:23;;;;;;;12.45;5.97;;;;;;;;;;5075279;28;20227;-50
2023/09/01 02:24:50;;;;;;;8.45;6.47;;;;;;;;;;5074040;28;20246;-46
2023/09/01 02:27:17;;;;;;;9.48;6.68;;;;;;;;;;5074107;28;20298;-46
2023/09/01 02:29:45;;;;;;;9.15;6.30;;;;;;;;;;5074267;28;20568;-46
2023/09/01 02:32:12;;;;;;;8.25;6.32;;;;;;;;;;5074382;28;20200;-44
2023/09/01 02:34:39;;;;;;;8.35;6.45;;;;;;;;;;5074123;28;20276;-44
2023/09/01 02:37:06;;;;;;;7.75;6.10;;;;;;;;;;5073818;28;20282;-45
2023/09/01 02:39:33;;;;;;;9.32;6.35;;;;;;;;;;5075508;28;20200;-45
2023/09/01 02:42:01;;;;;;;9.52;6.93;;;;;;;;;;5074764;28;20329;-45
2023/09/01 02:44:28;;;;;;;9.10;6.70;;;;;;;;;;5074755;28;20199;-46
2023/09/01 02:46:55;;;;;;;7.88;5.95;;;;;;;;;;5074795;28;20199;-46
2023/09/01 02:49:23;;;;;;;11.75;5.88;;;;;;;;;;5074756;28;20199;-44
2023/09/01 02:51:50;;;;;;;11.70;6.25;;;;;;;;;;5074935;28;20207;-44
2023/09/01 02:54:17;;;;;;;9.45;6.28;;;;;;;;;;5074719;28;20203;-47
2023/09/01 02:56:44;;;;;;;10.02;6.93;;;;;;;;;;5073639;28;20199;-46
2023/09/01 02:59:11;;;;;;;10.20;6.43;;;;;;;;;;5073699;28;20204;-45
2023/09/01 03:01:38;;;;;;;12.77;6.68;;;;;;;;;;5073551;28;20223;-46
2023/09/01 03:04:07;;;;;;;8.60;6.55;;;;;;;;;;5073651;28;20553;-46
2023/09/01 03:06:34;;;;;;;15.60;6.25;;;;;;;;;;5073784;28;20603;-49
2023/09/01 03:09:05;;;;;;;8.93;6.15;;;;;;;;;;5074109;28;20199;-46
2023/09/01 03:11:32;;;;;;;8.20;5.97;;;;;;;;;;5073713;28;20257;-44
2023/09/01 03:14:00;;;;;;;12.13;6.63;;;;;;;;;;5072044;28;20210;-44
2023/09/01 03:16:30;;;;;;;9.52;5.95;;;;;;;;;;5072953;28;20199;-44
2023/09/01 03:18:59;;;;;;;9.35;6.30;;;;;;;;;;5072877;28;20729;-44
2023/09/01 03:21:30;;;;;;;10.18;6.15;;;;;;;;;;5072683;28;20250;-45
2023/09/01 03:23:58;;;;;;;8.30;6.30;;;;;;;;;;5073824;28;20243;-46
2023/09/01 03:26:29;;;;;;;7.53;5.93;;;;;;;;;;5058167;28;20203;-47
2023/09/01 03:28:56;;;;;;;7.50;5.40;;;;;;;;;;5093360;28;20636;-45
2023/09/01 03:31:25;;;;;;;7.60;5.90;;;;;;;;;;5088697;28;20198;-47
2023/09/01 03:33:57;;;;;;;8.18;6.15;;;;;;;;;;5086537;28;20187;-45
2023/09/01 03:36:24;;;;;;;7.03;5.68;;;;;;;;;;5085335;28;20206;-46
2023/09/01 03:38:54;;;;;;;13.02;6.43;;;;;;;;;;5086779;28;20192;-45
2023/09/01 03:41:21;;;;;;;8.32;6.05;;;;;;;;;;5085618;28;20307;-44
2023/09/01 03:43:49;;;;;;;9.02;5.63;;;;;;;;;;5086908;28;20207;-45
2023/09/01 03:46:16;;;;;;;7.95;5.85;;;;;;;;;;5085371;28;20202;-45
2023/09/01 03:48:43;;;;;;;8.93;6.50;;;;;;;;;;5085740;28;20206;-47
2023/09/01 03:51:19;;;;;;;12.98;6.60;;;;;;;;;;5085428;28;20199;-47
2023/09/01 03:53:47;;;;;;;9.27;6.22;;;;;;;;;;5086101;28;20635;-46
2023/09/01 03:56:16;;;;;;;10.20;6.65;;;;;;;;;;5083201;28;20281;-44
2023/09/01 03:58:43;;;;;;;9.48;6.28;;;;;;;;;;5084055;28;20202;-45
2023/09/01 04:01:14;;;;;;;8.25;6.05;;;;;;;;;;5082027;28;20222;-45
2023/09/01 04:03:42;;;;;;;8.82;6.18;;;;;;;;;;5083005;28;20199;-45
2023/09/01 04:06:09;;;;;;;8.45;5.80;;;;;;;;;;5080405;28;20298;-44
2023/09/01 04:08:37;;;;;;;8.05;5.82;;;;;;;;;;5092010;28;20219;-44
2023/09/01 04:11:05;;;;;;;9.45;6.30;;;;;;;;;;5092322;28;20226;-45
2023/09/01 04:13:32;;;;;;;7.78;5.95;;;;;;;;;;5091672;28;20230;-44
2023/09/01 04:16:00;;;;;;;9.35;6.30;;;;;;;;;;5092519;28;20233;-44
2023/09/01 04:18:29;;;;;;;6.78;5.57;;;;;;;;;;5091928;28;20226;-44
2023/09/01 04:20:56;;;;;;;7.55;5.60;;;;;;;;;;5090968;28;20698;-45
2023/09/01 04:23:24;;;;;;;7.95;5.70;;;;;;;;;;5092481;28;20270;-46
2023/09/01 04:25:51;;;;;;;14.00;5.93;;;;;;;;;;5087841;28;20242;-46
2023/09/01 04:28:23;;;;;;;12.68;5.82;;;;;;;;;;5071657;28;20223;-44
2023/09/01 04:30:50;;;;;;;7.80;5.65;;;;;;;;;;5072492;28;20269;-45
2023/09/01 04:33:18;;;;;;;9.32;5.93;;;;;;;;;;5071460;28;20591;-45
2023/09/01 04:36:00;;;;;;;8.52;5.93;;;;;;;;;;5072214;28;20302;-44
2023/09/01 04:38:28;;;;;;;9.88;6.22;;;;;;;;;;5072432;28;20600;-44
2023/09/01 04:40:56;;;;;;;8.15;5.43;;;;;;;;;;5089695;28;20222;-46
2023/09/01 04:43:26;;;;;;;7.35;5.88;;;;;;;;;;5085403;28;20233;-44
2023/09/01 04:45:54;;;;;;;22.00;15.45;;;;;;;;;;5091289;28;20227;-45
2023/09/01 04:48:23;;;;;;;13.77;7.18;;;;;;;;;;5089657;28;20230;-45
2023/09/01 04:50:50;;;;;;;8.45;5.57;;;;;;;;;;5089861;28;20230;-46
2023/09/01 04:53:18;;;;;;;9.43;5.95;;;;;;;;;;5081262;28;20195;-44
2023/09/01 04:55:47;;;;;;;7.63;5.43;;;;;;;;;;5070664;28;20295;-44
2023/09/01 04:58:15;;;;;;;9.02;5.80;;;;;;;;;;5070980;28;20199;-46
2023/09/01 05:00:42;;;;;;;10.43;6.00;;;;;;;;;;5070843;28;20207;-45
2023/09/01 05:03:10;;;;;;;9.23;6.35;;;;;;;;;;5070406;28;20634;-45
2023/09/01 05:05:37;;;;;;;9.35;6.10;;;;;;;;;;5071223;28;20719;-45
2023/09/01 05:08:05;;;;;;;8.85;5.95;;;;;;;;;;5071511;28;20683;-45
2023/09/01 05:10:32;;;;;;;9.63;6.28;;;;;;;;;;5072822;28;20648;-44
2023/09/01 05:12:59;;;;;;;11.50;6.43;;;;;;;;;;5073010;28;20211;-45
2023/09/01 05:15:26;;;;;;;13.10;5.63;;;;;;;;;;5071714;28;20212;-45
2023/09/01 05:17:54;;;;;;;9.88;6.70;;;;;;;;;;5071595;28;20669;-45
2023/09/01 05:20:21;;;;;;;13.45;6.63;;;;;;;;;;5082856;28;20223;-44
2023/09/01 05:22:49;;;;;;;7.80;6.07;;;;;;;;;;5071627;28;20227;-44
2023/09/01 05:25:17;;;;;;;8.38;6.32;;;;;;;;;;5071558;28;20542;-44
2023/09/01 05:27:44;;;;;;;13.15;6.22;;;;;;;;;;5071496;28;20682;-46
2023/09/01 05:30:13;;;;;;;11.25;6.38;;;;;;;;;;5071782;28;20588;-44
2023/09/01 05:32:41;;;;;;;14.18;6.85;;;;;;;;;;5071659;28;20204;-45
2023/09/01 05:35:08;;;;;;;10.10;6.72;;;;;;;;;;5071372;28;20286;-46
2023/09/01 05:37:36;;;;;;;8.35;6.10;;;;;;;;;;5072191;28;20210;-45
2023/09/01 05:40:03;;;;;;;9.50;6.88;;;;;;;;;;5075133;28;20603;-44
2023/09/01 05:42:31;;;;;;;9.13;6.03;;;;;;;;;;5074884;28;20231;-43
2023/09/01 05:44:58;;;;;;;9.13;6.70;;;;;;;;;;5074950;28;20721;-44
2023/09/01 05:47:27;;;;;;;9.60;6.15;;;;;;;;;;5074747;28;20203;-43
2023/09/01 05:49:54;;;;;;;7.60;5.78;;;;;;;;;;5075126;28;20606;-45
2023/09/01 05:52:22;;;;;;;8.35;6.03;;;;;;;;;;5074965;28;20557;-44
2023/09/01 05:54:49;;;;;;;8.30;6.03;;;;;;;;;;5075903;28;20223;-44
2023/09/01 05:57:17;;;;;;;7.85;6.50;;;;;;;;;;5075745;28;20211;-44
2023/09/01 05:59:44;;;;;;;8.70;6.32;;;;;;;;;;5075875;28;20202;-44
2023/09/01 06:02:11;;;;;;;7.93;6.05;;;;;;;;;;5075904;28;20231;-45
2023/09/01 06:04:38;;;;;;;10.13;6.72;;;;;;;;;;5075886;28;20199;-45
2023/09/01 06:07:05;;;;;;;8.15;6.22;;;;;;;;;;5075961;28;20200;-43
2023/09/01 06:09:34;;;;;;;10.20;6.93;;;;;;;;;;5075971;28;20210;-43
2023/09/01 06:12:02;;;;;;;9.38;6.47;;;;;;;;;;5075615;28;20203;-45
2023/09/01 06:14:29;;;;;;;10.15;6.60;;;;;;;;;;5075494;28;20207;-44
2023/09/01 06:16:56;;;;;;;8.65;6.53;;;;;;;;;;5075814;28;20240;-46
2023/09/01 06:19:23;;;;;;;9.18;6.05;;;;;;;;;;5075664;28;20207;-43
2023/09/01 06:21:51;;;;;;;9.20;6.38;;;;;;;;;;5075557;28;20231;-44
2023/09/01 06:24:18;;;;;;;9.27;6.38;;;;;;;;;;5075106;28;20317;-45
2023/09/01 06:26:45;;;;;;;11.20;6.40;;;;;;;;;;5075501;28;20203;-46
2023/09/01 06:29:12;;;;;;;9.23;6.80;;;;;;;;;;5075168;28;20273;-44
2023/09/01 06:31:39;;;;;;;11.13;6.45;;;;;;;;;;5075378;28;20203;-43
2023/09/01 06:34:06;;;;;;;9.32;6.22;;;;;;;;;;5075150;28;20207;-44
2023/09/01 06:36:34;;;;;;;12.82;6.05;;;;;;;;;;5075176;28;20203;-43
2023/09/01 06:39:01;;;;;;;9.68;5.88;;;;;;;;;;5074988;28;20214;-44
2023/09/01 06:41:28;;;;;;;10.40;5.68;;;;;;;;;;5083631;28;20187;-44
2023/09/01 06:43:55;;;;;;;8.10;5.50;;;;;;;;;;5083912;28;20226;-44
2023/09/01 06:46:22;;;;;;;8.65;5.55;;;;;;;;;;5083888;28;20187;-44
2023/09/01 06:48:49;;;;;;;9.07;5.43;;;;;;;;;;5085553;28;20199;-45
2023/09/01 06:51:17;;;;;;;5.53;4.60;;;;;;;;;;5084286;28;20191;-44
2023/09/01 06:53:43;;;;;;;8.98;5.38;;;;;;;;;;5084069;28;20197;-44
2023/09/01 06:56:11;;;;;;;7.45;4.80;;;;;;;;;;5085489;28;20275;-43
2023/09/01 06:58:39;;;;;;;6.68;4.55;;;;;;;;;;5084264;28;20278;-46
2023/09/01 07:01:07;;;;;;;5.90;4.43;;;;;;;;;;5082920;28;20602;-45
2023/09/01 07:03:35;;;;;;;7.78;4.50;;;;;;;;;;5085658;28;20221;-47
2023/09/01 07:06:03;;;;;;;5.72;3.63;;;;;;;;;;5086409;28;20198;-46
2023/09/01 07:08:30;;;;;;;4.80;3.80;;;;;;;;;;5084079;28;20207;-46
2023/09/01 07:11:02;;;;;;;6.38;3.80;;;;;;;;;;5088516;28;20712;-46
2023/09/01 07:13:30;;;;;;;6.30;4.03;;;;;;;;;;5094025;28;20214;-46
2023/09/01 07:15:58;;;;;;;5.65;3.78;;;;;;;;;;5093458;28;20724;-46
2023/09/01 07:18:25;;;;;;;5.53;3.45;;;;;;;;;;5093432;28;20206;-46
2023/09/01 07:20:57;;;;;;;5.05;3.25;;;;;;;;;;5094086;28;20260;-46
2023/09/01 07:23:24;;;;;;;9.25;3.30;;;;;;;;;;5093493;28;20245;-47
2023/09/01 07:25:55;;;;;;;7.70;3.13;;;;;;;;;;5091260;28;20716;-48
2023/09/01 07:28:22;;;;;;;8.68;3.10;;;;;;;;;;5092683;28;20268;-47
2023/09/01 07:30:50;;;;;;;4.35;2.30;;;;;;;;;;5082077;28;20663;-47
2023/09/01 07:33:17;;;;;;;4.70;2.70;;;;;;;;;;5082570;28;20585;-48
2023/09/01 07:35:46;;;;;;;8.93;2.75;;;;;;;;;;5086816;28;20194;-47
2023/09/01 07:38:14;;;;;;;4.03;2.78;;;;;;;;;;5084770;28;20195;-46
2023/09/01 07:40:42;;;;;;;3.25;2.38;;;;;;;;;;5084749;28;20196;-48
2023/09/01 07:43:10;;;;;;;4.18;2.55;;;;;;;;;;5084591;28;20211;-47
2023/09/01 07:45:39;;;;;;;4.45;2.40;;;;;;;;;;5087690;28;20198;-47
2023/09/01 07:48:08;;;;;;;3.75;2.35;;;;;;;;;;5086832;28;20210;-47
2023/09/01 07:50:49;;;;;;;4.97;2.50;;;;;;;;;;5083887;28;20199;-46
2023/09/01 07:53:16;;;;;;;2.78;1.83;;;;;;;;;;5082183;28;20206;-48
2023/09/01 07:55:44;;;;;;;4.28;2.10;;;;;;;;;;5088294;28;20199;-47
2023/09/01 07:58:11;;;;;;;7.03;2.30;;;;;;;;;;5085370;28;20331;-47
2023/09/01 08:00:40;;;;;;;3.40;2.22;;;;;;;;;;5083559;28;20206;-48
2023/09/01 08:03:10;;;;;;;3.78;2.25;;;;;;;;;;5084610;28;20633;-49
2023/09/01 08:05:39;;;;;;;4.20;2.00;;;;;;;;;;5086927;28;20198;-47
2023/09/01 08:08:06;;;;;;;3.83;1.70;;;;;;;;;;5083358;28;20199;-48
2023/09/01 08:10:34;;;;;;;5.65;1.90;;;;;;;;;;5086424;28;20201;-47
2023/09/01 08:13:02;;;;;;;5.13;1.73;;;;;;;;;;5088187;28;20252;-46
2023/09/01 08:15:29;;;;;;;4.45;1.35;;;;;;;;;;5086559;28;20202;-46
2023/09/01 08:17:56;;;;;;;2.65;1.30;;;;;;;;;;5087492;28;20201;-48
2023/09/01 08:20:24;;;;;;;5.03;1.20;;;;;;;;;;5085611;28;20214;-47
2023/09/01 08:22:51;;;;;;;9.18;1.33;;;;;;;;;;5083636;28;20234;-45
2023/09/01 08:25:18;;;;;;;3.53;1.23;;;;;;;;;;5082722;28;20290;-46
2023/09/01 08:27:45;;;;;;;3.80;1.38;;;;;;;;;;5082320;28;20232;-47
2023/09/01 08:30:13;;;;;;;3.65;1.40;;;;;;;;;;5083056;28;20726;-46
2023/09/01 08:32:41;;;;;;;2.75;1.38;;;;;;;;;;5084858;28;20305;-47
2023/09/01 08:35:09;;;;;;;2.35;1.30;;;;;;;;;;5087625;28;20275;-46
2023/09/01 08:37:38;;;;;;;5.80;1.50;;;;;;;;;;5082680;28;20227;-50
2023/09/01 08:40:07;;;;;;;2.85;1.30;;;;;;;;;;5092127;28;20222;-47
2023/09/01 08:42:34;;;;;;;2.90;1.50;;;;;;;;;;5087824;28;20230;-49
2023/09/01 08:45:03;;;;;;;3.40;1.30;;;;;;;;;;5086288;28;20214;-46
2023/09/01 08:47:36;;;;;;;4.63;1.42;;;;;;;;;;5084371;28;20258;-46
2023/09/01 08:50:04;;;;;;;4.47;1.35;;;;;;;;;;5084833;28;20706;-46
2023/09/01 08:52:34;;;;;;;5.72;1.48;;;;;;;;;;5084068;28;20214;-46
2023/09/01 08:55:02;;;;;;;3.35;1.30;;;;;;;;;;5082307;28;20598;-46
2023/09/01 08:57:29;;;;;;;5.03;1.38;;;;;;;;;;5085807;28;20687;-46
2023/09/01 08:59:56;;;;;;;3.65;1.50;;;;;;;;;;5087615;28;20683;-46
2023/09/01 09:02:23;;;;;;;2.67;1.25;;;;;;;;;;5090013;28;20227;-47
2023/09/01 09:04:51;;;;;;;3.33;1.45;;;;;;;;;;5091842;28;20223;-48
2023/09/01 09:07:20;;;;;;;2.05;1.50;;;;;;;;;;5083124;28;20280;-46
2023/09/01 09:09:58;;;;;;;2.30;1.35;;;;;;;;;;5091934;28;20230;-47
2023/09/01 09:12:41;;;;;;;5.70;1.50;;;;;;;;;;5091945;28;20226;-47
2023/09/01 09:15:09;;;;;;;3.03;1.23;;;;;;;;;;5081188;28;20222;-47
2023/09/01 09:17:44;;;;;;;4.72;1.38;;;;;;;;;;5085860;28;20657;-47
2023/09/01 09:20:14;;;;;;;2.25;1.30;;;;;;;;;;5090035;28;20287;-48
2023/09/01 09:22:59;;;;;;;2.45;1.23;;;;;;;;;;5094661;28;20234;-48
2023/09/01 09:25:35;;;;;;;2.72;1.40;;;;;;;;;;5094959;28;20763;-46
2023/09/01 09:28:13;;;;;;;3.80;1.73;;;;;;;;;;5087781;28;20309;-47
2023/09/01 09:30:52;;;;;;;3.95;1.20;;;;;;;;;;5109393;28;20241;-46
2023/09/01 09:33:27;;;;;;;1.88;1.48;;;;;;;;;;5087890;28;20237;-47
2023/09/01 09:35:54;;;;;;;5.57;1.40;;;;;;;;;;5088239;28;20218;-44
2023/09/01 09:38:21;;;;;;;15.80;1.73;;;;;;;;;;5095847;28;20229;-44
2023/09/01 09:41:00;;;;;;;3.58;1.50;;;;;;;;;;5091554;28;20597;-44
2023/09/01 09:43:27;;;;;;;3.65;1.60;;;;;;;;;;5075498;28;20654;-45
2023/09/01 09:45:54;;;;;;;8.35;1.48;;;;;;;;;;5075023;28;20231;-45
2023/09/01 09:48:22;;;;;;;2.92;1.65;;;;;;;;;;5075423;28;20319;-44
2023/09/01 09:50:54;;;;;;;2.53;1.50;;;;;;;;;;5075190;28;20230;-44
2023/09/01 09:53:22;;;;;;;5.40;1.45;;;;;;;;;;5074205;28;20223;-44
2023/09/01 09:55:51;;;;;;;4.50;1.73;;;;;;;;;;5073727;28;20231;-44
2023/09/01 09:58:18;;;;;;;4.05;1.40;;;;;;;;;;5074924;28;20277;-45
2023/09/01 10:01:08;;;;;;;3.92;2.38;;;;;;;;;;5074948;28;20231;-44
2023/09/01 10:03:36;;;;;;;7.95;1.80;;;;;;;;;;5056983;28;20235;-45
2023/09/01 10:06:05;;;;;;;7.35;1.90;;;;;;;;;;5075996;28;20218;-45
2023/09/01 10:08:32;;;;;;;4.00;2.10;;;;;;;;;;5073664;28;20223;-44
2023/09/01 10:11:02;;;;;;;3.83;2.10;;;;;;;;;;5074478;28;20230;-46
2023/09/01 10:13:29;;;;;;;8.30;1.92;;;;;;;;;;5074659;28;20322;-46
2023/09/01 10:15:57;;;;;;;3.13;1.52;;;;;;;;;;5075116;28;20261;-44
2023/09/01 10:18:25;;;;;;;2.55;1.75;;;;;;;;;;5082992;28;20589;-46
2023/09/01 10:20:52;;;;;;;5.32;2.05;;;;;;;;;;5083115;28;20229;-45
2023/09/01 10:23:19;;;;;;;4.50;2.47;;;;;;;;;;5083212;28;20243;-45
2023/09/01 10:26:13;;;;;;;4.15;2.25;;;;;;;;;;5083081;28;20210;-48
2023/09/01 10:29:13;;;;;;;2.97;1.90;;;;;;;;;;5083437;28;20234;-45
2023/09/01 10:31:44;;;;;;;7.55;1.88;;;;;;;;;;5045614;28;20576;-45
2023/09/01 10:34:12;;;;;;;4.55;1.85;;;;;;;;;;5062372;28;20228;-45
2023/09/01 10:36:41;;;;;;;3.13;1.77;;;;;;;;;;5061214;28;20227;-46
2023/09/01 10:39:23;;;;;;;4.88;2.03;;;;;;;;;;5059138;28;20220;-44
2023/09/01 10:41:58;;;;;;;4.97;1.70;;;;;;;;;;5060708;28;20220;-46
2023/09/01 10:44:43;;;;;;;2.25;1.30;;;;;;;;;;5061206;28;20289;-46
2023/09/01 10:47:32;;;;;;;12.57;2.17;;;;;;;;;;5059992;28;20216;-44
2023/09/01 10:50:03;;;;;;;20.15;2.00;;;;;;;;;;5060527;28;20594;-46
2023/09/01 10:52:36;;;;;;;5.97;2.17;;;;;;;;;;5064498;28;20228;-44
2023/09/01 10:55:05;;;;;;;3.38;1.27;;;;;;;;;;5062309;28;20222;-49
2023/09/01 10:57:41;;;;;;;4.03;1.58;;;;;;;;;;5057448;28;20277;-48
2023/09/01 11:00:30;;;;;;;3.30;1.88;;;;;;;;;;5061024;28;20223;-45
2023/09/01 11:03:38;;;;;;;3.58;2.00;;;;;;;;;;5060587;28;20683;-46
2023/09/01 11:06:06;;;;;;;2.60;1.80;;;;;;;;;;4962362;28;20215;-48
2023/09/01 11:08:33;;;;;;;2.78;1.90;;;;;;;;;;5009668;28;20757;-46
2023/09/01 11:11:10;;;;;;;6.22;2.20;;;;;;;;;;4972966;28;20710;-46
2023/09/01 11:13:37;;;;;;;7.40;1.92;;;;;;;;;;5008801;28;20319;-44
2023/09/01 11:16:08;;;;;;;3.65;1.52;;;;;;;;;;5010381;28;20776;-46
2023/09/01 11:18:36;;;;;;;4.57;2.50;;;;;;;;;;5009548;28;20201;-44
2023/09/01 11:21:07;;;;;;;4.68;2.20;;;;;;;;;;5009295;28;20639;-47
2023/09/01 11:23:34;;;;;;;6.03;2.20;;;;;;;;;;5009636;28;20236;-47
2023/09/01 11:26:03;;;;;;;6.35;2.35;;;;;;;;;;5009676;28;20293;-49
2023/09/01 11:28:32;;;;;;;4.20;2.33;;;;;;;;;;5005819;28;20210;-45
2023/09/01 11:31:03;;;;;;;5.30;2.63;;;;;;;;;;5008329;28;20654;-46
2023/09/01 11:33:33;;;;;;;4.05;2.75;;;;;;;;;;5008330;28;20209;-46
2023/09/01 11:36:12;;;;;;;4.60;2.67;;;;;;;;;;5019473;28;20310;-46
2023/09/01 11:38:43;;;;;;;5.82;2.40;;;;;;;;;;5085260;28;20199;-46
2023/09/01 11:41:18;;;;;;;7.68;2.38;;;;;;;;;;5084213;28;20244;-45
2023/09/01 11:43:46;;;;;;;4.47;2.30;;;;;;;;;;5088131;28;20214;-47
2023/09/01 11:46:14;;;;;;;2.80;1.60;;;;;;;;;;5082116;28;20195;-49
2023/09/01 11:48:41;;;;;;;4.72;2.25;;;;;;;;;;5086301;28;20206;-45
2023/09/01 11:51:09;;;;;;;4.13;2.85;;;;;;;;;;5083972;28;20203;-48
2023/09/01 11:53:37;;;;;;;4.50;3.28;;;;;;;;;;5085849;28;20290;-46
2023/09/01 11:56:19;;;;;;;4.65;3.03;;;;;;;;;;5084277;28;20278;-49
2023/09/01 11:58:50;;;;;;;3.63;1.85;;;;;;;;;;5086364;28;20670;-45
2023/09/01 12:01:20;;;;;;;3.63;1.38;;;;;;;;;;5083237;28;20214;-47
2023/09/01 12:03:48;;;;;;;2.38;1.38;;;;;;;;;;5084455;28;20222;-47
2023/09/01 12:06:19;;;;;;;4.63;3.28;;;;;;;;;;5082610;28;20198;-44
2023/09/01 12:08:47;;;;;;;5.22;3.03;;;;;;;;;;5084546;28;20187;-47
2023/09/01 12:11:15;;;;;;;6.07;2.70;;;;;;;;;;5082314;28;20196;-45
2023/09/01 12:13:46;;;;;;;4.63;3.00;;;;;;;;;;5081982;28;20195;-45
2023/09/01 12:16:22;;;;;;;5.53;2.75;;;;;;;;;;5081955;28;20652;-47
2023/09/01 12:18:52;;;;;;;4.97;2.60;;;;;;;;;;5082059;28;20191;-44
2023/09/01 12:21:19;;;;;;;6.47;2.92;;;;;;;;;;5083132;28;20203;-45
2023/09/01 12:23:47;;;;;;;3.55;2.58;;;;;;;;;;5081891;28;20243;-47
2023/09/01 12:26:15;;;;;;;2.50;1.60;;;;;;;;;;5084095;28;20237;-46
2023/09/01 12:28:43;;;;;;;3.22;1.38;;;;;;;;;;5072526;28;20227;-45
2023/09/01 12:31:11;;;;;;;1.98;1.08;;;;;;;;;;5081042;28;20284;-45
2023/09/01 12:33:39;;;;;;;5.07;1.20;;;;;;;;;;5083368;28;20219;-46
2023/09/01 12:36:06;;;;;;;2.85;1.15;;;;;;;;;;5081756;28;20733;-46
2023/09/01 12:38:34;;;;;;;2.40;1.25;;;;;;;;;;5082562;28;20234;-46
2023/09/01 12:41:01;;;;;;;2.55;1.23;;;;;;;;;;5083543;28;20306;-47
2023/09/01 12:43:29;;;;;;;2.28;1.15;;;;;;;;;;5082217;28;20235;-45
2023/09/01 12:45:56;;;;;;;3.33;1.27;;;;;;;;;;5084791;28;20211;-44
2023/09/01 12:48:23;;;;;;;4.70;1.25;;;;;;;;;;5090034;28;20222;-46
2023/09/01 12:50:50;;;;;;;2.00;1.13;;;;;;;;;;5085133;28;20710;-46
2023/09/01 12:53:18;;;;;;;3.40;1.08;;;;;;;;;;5083860;28;20308;-45
2023/09/01 12:55:47;;;;;;;2.20;1.13;;;;;;;;;;5086156;28;20223;-45
2023/09/01 12:58:15;;;;;;;1.70;1.23;;;;;;;;;;5084591;28;20214;-47
2023/09/01 13:00:42;;;;;;;2.20;1.15;;;;;;;;;;5086271;28;20206;-46
2023/09/01 13:03:10;;;;;;;3.40;1.20;;;;;;;;;;5086539;28;20218;-45
2023/09/01 13:05:38;;;;;;;2.85;1.00;;;;;;;;;;5087724;28;20241;-47
2023/09/01 13:08:05;;;;;;;3.05;1.45;;;;;;;;;;5086062;28;20223;-45
2023/09/01 13:10:33;;;;;;;1.75;0.70;;;;;;;;;;5084120;28;20230;-46
2023/09/01 13:13:00;;;;;;;2.85;0.90;;;;;;;;;;5087461;28;20612;-45
2023/09/01 13:15:28;;;;;;;2.25;0.80;;;;;;;;;;5081178;28;20291;-44
2023/09/01 13:17:56;;;;;;;3.38;1.00;;;;;;;;;;5086061;28;20246;-43
2023/09/01 13:20:23;;;;;;;4.30;1.17;;;;;;;;;;5086911;28;20566;-45
2023/09/01 13:22:50;;;;;;;6.80;0.90;;;;;;;;;;5086826;28;20237;-45
2023/09/01 13:25:17;;;;;;;5.90;0.90;;;;;;;;;;5083399;28;20230;-44
2023/09/01 13:27:45;;;;;;;3.38;1.10;;;;;;;;;;5075240;28;20216;-45
2023/09/01 13:30:12;;;;;;;1.85;0.80;;;;;;;;;;5075414;28;20230;-45
2023/09/01 13:32:39;;;;;;;1.63;0.77;;;;;;;;;;5075816;28;20230;-47
2023/09/01 13:35:07;;;;;;;5.22;1.20;;;;;;;;;;5075579;28;20227;-43
2023/09/01 13:37:34;;;;;;;3.58;1.20;;;;;;;;;;5075353;28;20234;-43
2023/09/01 13:40:01;;;;;;;2.85;0.75;;;;;;;;;;5087793;28;20229;-44
2023/09/01 13:42:28;;;;;;;3.63;0.90;;;;;;;;;;5079308;28;20269;-43
2023/09/01 13:44:56;;;;;;;1.73;0.90;;;;;;;;;;5075461;28;20235;-43
2023/09/01 13:47:24;;;;;;;1.67;1.00;;;;;;;;;;5075291;28;20235;-42
2023/09/01 13:49:55;;;;;;;3.88;0.93;;;;;;;;;;5075388;28;20230;-45
2023/09/01 13:52:22;;;;;;;2.38;0.98;;;;;;;;;;5075466;28;20622;-43
2023/09/01 13:54:52;;;;;;;4.70;0.90;;;;;;;;;;5075280;28;20635;-44
2023/09/01 13:57:20;;;;;;;4.13;1.20;;;;;;;;;;5074975;28;20224;-44
2023/09/01 13:59:48;;;;;;;3.22;1.00;;;;;;;;;;5074449;28;20257;-43
2023/09/01 14:02:16;;;;;;;2.95;1.27;;;;;;;;;;5074912;28;20730;-43
2023/09/01 14:04:43;;;;;;;3.15;1.00;;;;;;;;;;5073754;28;20246;-46
2023/09/01 14:07:15;;;;;;;2.05;1.13;;;;;;;;;;5074989;28;20230;-43
2023/09/01 14:09:42;;;;;;;2.58;1.25;;;;;;;;;;5089574;28;20573;-44
2023/09/01 14:12:09;;;;;;;2.40;0.98;;;;;;;;;;5083213;28;20226;-43
2023/09/01 14:14:37;;;;;;;2.67;1.13;;;;;;;;;;5095186;28;20223;-44
2023/09/01 14:17:04;;;;;;;1.70;1.20;;;;;;;;;;5095307;28;20222;-44
2023/09/01 14:19:31;;;;;;;2.08;1.00;;;;;;;;;;5094867;28;20223;-44
2023/09/01 14:21:58;;;;;;;1.80;0.80;;;;;;;;;;5095120;28;20227;-46
2023/09/01 14:24:25;;;;;;;1.23;0.90;;;;;;;;;;5094220;28;20733;-47
2023/09/01 14:26:53;;;;;;;1.98;1.00;;;;;;;;;;5094727;28;20302;-43
2023/09/01 14:29:20;;;;;;;2.03;1.13;;;;;;;;;;5094483;28;20223;-43
2023/09/01 14:31:48;;;;;;;2.95;1.25;;;;;;;;;;5094997;28;20257;-45
2023/09/01 14:34:15;;;;;;;2.92;1.20;;;;;;;;;;5094707;28;20218;-43
2023/09/01 14:36:42;;;;;;;4.20;1.00;;;;;;;;;;5094595;28;20230;-42
2023/09/01 14:39:09;;;;;;;2.85;1.02;;;;;;;;;;5094617;28;20271;-43
2023/09/01 14:41:37;;;;;;;1.73;0.90;;;;;;;;;;5094078;28;20214;-43
2023/09/01 14:44:04;;;;;;;1.42;0.90;;;;;;;;;;5094624;28;20733;-43
2023/09/01 14:46:32;;;;;;;5.05;1.45;;;;;;;;;;5094432;28;20234;-42
2023/09/01 14:49:00;;;;;;;2.85;1.10;;;;;;;;;;5094327;28;20341;-43
2023/09/01 14:51:28;;;;;;;2.38;1.20;;;;;;;;;;5094035;28;20230;-42
2023/09/01 14:53:55;;;;;;;2.50;1.20;;;;;;;;;;5094739;28;20275;-43